Terminal Aerodrome Forecast
Issued by NWS Portland, ME

Home | Current Version | Previous Version | Text Only | Print | Product List | Glossary On
Versions: 1 2 3 4 5 6 7 8 9 10 11 12 13 14 15 16 17 18 19 20 21 22 23 24 25
000
FTUS41 KGYX 301219 AAA
TAFCON
TAF AMD
KCON 301219Z 3012/3112 VRB03KT 6SM -SN BR OVC012
      TEMPO 3012/3014 1 1/2SM -SN BR OVC009
     FM301400 VRB03KT 3/4SM -SN BR OVC005
     FM301900 32008KT 2SM -SN BR OVC007
     FM302200 33013G24KT 6SM -SHSN OVC025=

USA.gov is the U.S. government's official web portal to all federal, state and local government web resources and services.